sensor_id;sensor_type;location;lat;lon;timestamp;temperature;humidity
9772;DHT22;4925;52.588;13.370;2022-12-05T00:00:46;4.30;99.90
9772;DHT22;4925;52.588;13.370;2022-12-05T00:03:11;4.10;99.90
9772;DHT22;4925;52.588;13.370;2022-12-05T00:05:40;4.10;99.90
9772;DHT22;4925;52.588;13.370;2022-12-05T00:08:06;4.10;99.90
9772;DHT22;4925;52.588;13.370;2022-12-05T00:10:35;4.20;99.90
9772;DHT22;4925;52.588;13.370;2022-12-05T00:13:00;4.20;99.90
9772;DHT22;4925;52.588;13.370;2022-12-05T00:15:26;4.20;99.90
9772;DHT22;4925;52.588;13.370;2022-12-05T00:17:52;4.30;99.90
9772;DHT22;4925;52.588;13.370;2022-12-05T00:20:17;4.30;99.90
9772;DHT22;4925;52.588;13.370;2022-12-05T00:22:43;4.30;99.90
9772;DHT22;4925;52.588;13.370;2022-12-05T00:25:09;4.30;99.90
9772;DHT22;4925;52.588;13.370;2022-12-05T00:27:35;4.30;99.90
9772;DHT22;4925;52.588;13.370;2022-12-05T00:30:00;4.30;99.90
9772;DHT22;4925;52.588;13.370;2022-12-05T00:32:30;4.30;99.90
9772;DHT22;4925;52.588;13.370;2022-12-05T00:34:56;4.30;99.90
9772;DHT22;4925;52.588;13.370;2022-12-05T00:37:22;4.30;99.90
9772;DHT22;4925;52.588;13.370;2022-12-05T00:39:48;4.30;99.90
9772;DHT22;4925;52.588;13.370;2022-12-05T00:42:14;4.40;99.90
9772;DHT22;4925;52.588;13.370;2022-12-05T00:44:39;4.40;99.90
9772;DHT22;4925;52.588;13.370;2022-12-05T00:47:05;4.40;99.90
9772;DHT22;4925;52.588;13.370;2022-12-05T00:49:31;4.50;99.90
9772;DHT22;4925;52.588;13.370;2022-12-05T00:51:57;4.50;99.90
9772;DHT22;4925;52.588;13.370;2022-12-05T00:54:22;4.50;99.90
9772;DHT22;4925;52.588;13.370;2022-12-05T00:56:48;4.50;99.90
9772;DHT22;4925;52.588;13.370;2022-12-05T00:59:18;4.50;99.90
9772;DHT22;4925;52.588;13.370;2022-12-05T01:01:45;4.50;99.90
9772;DHT22;4925;52.588;13.370;2022-12-05T01:04:14;4.50;99.90
9772;DHT22;4925;52.588;13.370;2022-12-05T01:06:40;4.50;99.90
9772;DHT22;4925;52.588;13.370;2022-12-05T01:09:07;4.60;99.90
9772;DHT22;4925;52.588;13.370;2022-12-05T01:11:34;4.50;99.90
9772;DHT22;4925;52.588;13.370;2022-12-05T01:14:01;4.60;99.90
9772;DHT22;4925;52.588;13.370;2022-12-05T01:16:29;4.50;99.90
9772;DHT22;4925;52.588;13.370;2022-12-05T01:18:56;4.50;99.90
9772;DHT22;4925;52.588;13.370;2022-12-05T01:21:23;4.50;99.90
9772;DHT22;4925;52.588;13.370;2022-12-05T01:23:49;4.50;99.90
9772;DHT22;4925;52.588;13.370;2022-12-05T01:26:16;4.50;99.90
9772;DHT22;4925;52.588;13.370;2022-12-05T01:28:42;4.60;99.90
9772;DHT22;4925;52.588;13.370;2022-12-05T01:33:46;4.50;99.90
9772;DHT22;4925;52.588;13.370;2022-12-05T01:36:11;4.50;99.90
9772;DHT22;4925;52.588;13.370;2022-12-05T01:38:39;4.40;99.90
9772;DHT22;4925;52.588;13.370;2022-12-05T01:41:06;4.40;99.90
9772;DHT22;4925;52.588;13.370;2022-12-05T01:43:32;4.40;99.90
9772;DHT22;4925;52.588;13.370;2022-12-05T01:45:58;4.40;99.90
9772;DHT22;4925;52.588;13.370;2022-12-05T01:48:34;4.40;99.90
9772;DHT22;4925;52.588;13.370;2022-12-05T01:51:01;4.30;99.90
9772;DHT22;4925;52.588;13.370;2022-12-05T01:53:27;4.30;99.90
9772;DHT22;4925;52.588;13.370;2022-12-05T01:55:54;4.30;99.90
9772;DHT22;4925;52.588;13.370;2022-12-05T01:58:20;4.30;99.90
9772;DHT22;4925;52.588;13.370;2022-12-05T02:00:49;4.30;99.90
9772;DHT22;4925;52.588;13.370;2022-12-05T02:03:17;4.30;99.90
9772;DHT22;4925;52.588;13.370;2022-12-05T02:05:46;4.30;99.90
9772;DHT22;4925;52.588;13.370;2022-12-05T02:08:13;4.20;99.90
9772;DHT22;4925;52.588;13.370;2022-12-05T02:10:47;4.20;99.90
9772;DHT22;4925;52.588;13.370;2022-12-05T02:30:17;4.30;99.90
9772;DHT22;4925;52.588;13.370;2022-12-05T02:35:54;4.20;99.90
9772;DHT22;4925;52.588;13.370;2022-12-05T02:40:58;4.20;99.90
9772;DHT22;4925;52.588;13.370;2022-12-05T02:43:37;4.20;99.90
9772;DHT22;4925;52.588;13.370;2022-12-05T02:46:17;4.20;99.90
9772;DHT22;4925;52.588;13.370;2022-12-05T02:48:45;4.20;99.90
9772;DHT22;4925;52.588;13.370;2022-12-05T02:51:17;4.40;99.90
9772;DHT22;4925;52.588;13.370;2022-12-05T02:53:44;4.20;99.90
9772;DHT22;4925;52.588;13.370;2022-12-05T02:56:11;4.30;99.90
9772;DHT22;4925;52.588;13.370;2022-12-05T02:58:42;4.30;99.90
9772;DHT22;4925;52.588;13.370;2022-12-05T03:01:09;4.30;99.90
9772;DHT22;4925;52.588;13.370;2022-12-05T03:03:36;4.20;99.90
9772;DHT22;4925;52.588;13.370;2022-12-05T03:06:08;4.20;99.90
9772;DHT22;4925;52.588;13.370;2022-12-05T03:08:41;4.30;99.90
9772;DHT22;4925;52.588;13.370;2022-12-05T03:11:08;4.30;99.90
9772;DHT22;4925;52.588;13.370;2022-12-05T03:14:01;4.30;99.90
9772;DHT22;4925;52.588;13.370;2022-12-05T03:16:40;4.20;99.90
9772;DHT22;4925;52.588;13.370;2022-12-05T03:19:19;4.20;99.90
9772;DHT22;4925;52.588;13.370;2022-12-05T03:21:57;4.30;99.90
9772;DHT22;4925;52.588;13.370;2022-12-05T03:24:25;4.30;99.90
9772;DHT22;4925;52.588;13.370;2022-12-05T03:37:34;4.10;99.90
9772;DHT22;4925;52.588;13.370;2022-12-05T03:46:15;4.30;99.90
9772;DHT22;4925;52.588;13.370;2022-12-05T03:51:18;4.30;99.90
9772;DHT22;4925;52.588;13.370;2022-12-05T03:56:40;4.30;99.90
9772;DHT22;4925;52.588;13.370;2022-12-05T04:01:42;4.30;99.90
9772;DHT22;4925;52.588;13.370;2022-12-05T04:04:14;4.30;99.90
9772;DHT22;4925;52.588;13.370;2022-12-05T04:06:46;4.30;99.90
9772;DHT22;4925;52.588;13.370;2022-12-05T04:09:25;4.30;99.90
9772;DHT22;4925;52.588;13.370;2022-12-05T04:11:56;4.30;99.90
9772;DHT22;4925;52.588;13.370;2022-12-05T04:14:39;4.30;99.90
9772;DHT22;4925;52.588;13.370;2022-12-05T04:20:10;4.20;99.90
9772;DHT22;4925;52.588;13.370;2022-12-05T04:22:55;4.30;99.90
9772;DHT22;4925;52.588;13.370;2022-12-05T04:25:24;4.30;99.90
9772;DHT22;4925;52.588;13.370;2022-12-05T04:30:58;4.30;99.90
9772;DHT22;4925;52.588;13.370;2022-12-05T04:33:50;4.30;99.90
9772;DHT22;4925;52.588;13.370;2022-12-05T04:41:42;4.40;99.90
9772;DHT22;4925;52.588;13.370;2022-12-05T04:44:13;4.30;99.90
9772;DHT22;4925;52.588;13.370;2022-12-05T04:46:43;4.30;99.90
9772;DHT22;4925;52.588;13.370;2022-12-05T04:49:12;4.30;99.90
9772;DHT22;4925;52.588;13.370;2022-12-05T04:51:41;4.30;99.90
9772;DHT22;4925;52.588;13.370;2022-12-05T04:54:14;4.30;99.90
9772;DHT22;4925;52.588;13.370;2022-12-05T04:56:42;4.30;99.90
9772;DHT22;4925;52.588;13.370;2022-12-05T04:59:10;4.30;99.90
9772;DHT22;4925;52.588;13.370;2022-12-05T05:04:15;4.30;99.90
9772;DHT22;4925;52.588;13.370;2022-12-05T05:06:42;4.30;99.90
9772;DHT22;4925;52.588;13.370;2022-12-05T05:09:08;4.40;99.90
9772;DHT22;4925;52.588;13.370;2022-12-05T05:11:35;4.30;99.90
9772;DHT22;4925;52.588;13.370;2022-12-05T05:14:01;4.30;99.90
9772;DHT22;4925;52.588;13.370;2022-12-05T05:16:35;4.40;99.90
9772;DHT22;4925;52.588;13.370;2022-12-05T05:19:01;4.40;99.90
9772;DHT22;4925;52.588;13.370;2022-12-05T05:21:34;4.40;99.90
9772;DHT22;4925;52.588;13.370;2022-12-05T05:24:00;4.50;99.90
9772;DHT22;4925;52.588;13.370;2022-12-05T05:26:27;4.50;99.90
9772;DHT22;4925;52.588;13.370;2022-12-05T05:28:53;4.40;99.90
9772;DHT22;4925;52.588;13.370;2022-12-05T05:31:19;4.40;99.90
9772;DHT22;4925;52.588;13.370;2022-12-05T05:33:50;4.40;99.90
9772;DHT22;4925;52.588;13.370;2022-12-05T05:36:17;4.40;99.90
9772;DHT22;4925;52.588;13.370;2022-12-05T05:38:47;4.40;99.90
9772;DHT22;4925;52.588;13.370;2022-12-05T05:41:15;4.40;99.90
9772;DHT22;4925;52.588;13.370;2022-12-05T05:43:42;4.50;99.90
9772;DHT22;4925;52.588;13.370;2022-12-05T05:46:08;5.00;99.90
9772;DHT22;4925;52.588;13.370;2022-12-05T05:48:35;5.40;99.90
9772;DHT22;4925;52.588;13.370;2022-12-05T05:51:02;5.70;99.90
9772;DHT22;4925;52.588;13.370;2022-12-05T05:53:28;5.60;99.90
9772;DHT22;4925;52.588;13.370;2022-12-05T05:55:54;5.40;99.90
9772;DHT22;4925;52.588;13.370;2022-12-05T05:58:20;5.30;99.90
9772;DHT22;4925;52.588;13.370;2022-12-05T06:00:45;5.20;99.90
9772;DHT22;4925;52.588;13.370;2022-12-05T06:03:11;5.10;99.90
9772;DHT22;4925;52.588;13.370;2022-12-05T06:05:37;5.10;99.90
9772;DHT22;4925;52.588;13.370;2022-12-05T06:08:03;5.10;99.90
9772;DHT22;4925;52.588;13.370;2022-12-05T06:10:28;5.00;99.90
9772;DHT22;4925;52.588;13.370;2022-12-05T06:12:55;5.00;99.90
9772;DHT22;4925;52.588;13.370;2022-12-05T06:15:22;5.00;99.90
9772;DHT22;4925;52.588;13.370;2022-12-05T06:17:48;5.00;99.90
9772;DHT22;4925;52.588;13.370;2022-12-05T06:20:13;4.90;99.90
9772;DHT22;4925;52.588;13.370;2022-12-05T06:22:39;4.80;99.90
9772;DHT22;4925;52.588;13.370;2022-12-05T06:25:05;4.90;99.90
9772;DHT22;4925;52.588;13.370;2022-12-05T06:27:32;4.90;99.90
9772;DHT22;4925;52.588;13.370;2022-12-05T06:29:58;4.80;99.90
9772;DHT22;4925;52.588;13.370;2022-12-05T06:32:24;4.80;99.90
9772;DHT22;4925;52.588;13.370;2022-12-05T06:34:50;4.80;99.90
9772;DHT22;4925;52.588;13.370;2022-12-05T06:37:15;4.80;99.90
9772;DHT22;4925;52.588;13.370;2022-12-05T06:39:41;4.80;99.90
9772;DHT22;4925;52.588;13.370;2022-12-05T06:42:07;4.80;99.90
9772;DHT22;4925;52.588;13.370;2022-12-05T06:44:32;4.80;99.90
9772;DHT22;4925;52.588;13.370;2022-12-05T06:46:58;4.90;99.90
9772;DHT22;4925;52.588;13.370;2022-12-05T06:49:24;4.90;99.90
9772;DHT22;4925;52.588;13.370;2022-12-05T06:51:54;4.90;99.90
9772;DHT22;4925;52.588;13.370;2022-12-05T06:54:20;4.90;99.90
9772;DHT22;4925;52.588;13.370;2022-12-05T06:56:45;5.10;99.90
9772;DHT22;4925;52.588;13.370;2022-12-05T06:59:13;5.20;99.90
9772;DHT22;4925;52.588;13.370;2022-12-05T07:01:38;5.30;99.90
9772;DHT22;4925;52.588;13.370;2022-12-05T07:06:35;5.40;99.90
9772;DHT22;4925;52.588;13.370;2022-12-05T07:09:02;5.50;99.90
9772;DHT22;4925;52.588;13.370;2022-12-05T07:11:28;5.40;99.90
9772;DHT22;4925;52.588;13.370;2022-12-05T07:13:54;5.40;99.90
9772;DHT22;4925;52.588;13.370;2022-12-05T07:16:20;5.40;99.90
9772;DHT22;4925;52.588;13.370;2022-12-05T07:18:45;5.40;99.90
9772;DHT22;4925;52.588;13.370;2022-12-05T07:21:12;5.30;99.90
9772;DHT22;4925;52.588;13.370;2022-12-05T07:23:39;5.30;99.90
9772;DHT22;4925;52.588;13.370;2022-12-05T07:26:13;5.40;99.90
9772;DHT22;4925;52.588;13.370;2022-12-05T07:28:39;5.40;99.90
9772;DHT22;4925;52.588;13.370;2022-12-05T07:31:10;5.30;99.90
9772;DHT22;4925;52.588;13.370;2022-12-05T07:33:37;5.30;99.90
9772;DHT22;4925;52.588;13.370;2022-12-05T07:36:08;5.20;99.90
9772;DHT22;4925;52.588;13.370;2022-12-05T07:38:34;5.20;99.90
9772;DHT22;4925;52.588;13.370;2022-12-05T07:41:07;5.30;99.90
9772;DHT22;4925;52.588;13.370;2022-12-05T07:43:33;5.20;99.90
9772;DHT22;4925;52.588;13.370;2022-12-05T07:46:06;5.20;99.90
9772;DHT22;4925;52.588;13.370;2022-12-05T07:48:32;5.20;99.90
9772;DHT22;4925;52.588;13.370;2022-12-05T07:51:05;5.20;99.90
9772;DHT22;4925;52.588;13.370;2022-12-05T07:53:32;5.20;99.90
9772;DHT22;4925;52.588;13.370;2022-12-05T07:56:03;5.10;99.90
9772;DHT22;4925;52.588;13.370;2022-12-05T07:58:30;5.20;99.90
9772;DHT22;4925;52.588;13.370;2022-12-05T08:00:56;5.20;99.90
9772;DHT22;4925;52.588;13.370;2022-12-05T08:03:23;5.10;99.90
9772;DHT22;4925;52.588;13.370;2022-12-05T08:05:49;5.20;99.90
9772;DHT22;4925;52.588;13.370;2022-12-05T08:08:15;5.10;99.90
9772;DHT22;4925;52.588;13.370;2022-12-05T08:10:40;5.10;99.90
9772;DHT22;4925;52.588;13.370;2022-12-05T08:13:06;5.10;99.90
9772;DHT22;4925;52.588;13.370;2022-12-05T08:15:34;5.10;99.90
9772;DHT22;4925;52.588;13.370;2022-12-05T08:18:01;5.10;99.90
9772;DHT22;4925;52.588;13.370;2022-12-05T08:20:26;5.00;99.90
9772;DHT22;4925;52.588;13.370;2022-12-05T08:22:52;5.00;99.90
9772;DHT22;4925;52.588;13.370;2022-12-05T08:25:18;5.10;99.90
9772;DHT22;4925;52.588;13.370;2022-12-05T08:27:44;5.00;99.90
9772;DHT22;4925;52.588;13.370;2022-12-05T08:30:10;5.00;99.90
9772;DHT22;4925;52.588;13.370;2022-12-05T08:32:36;5.00;99.90
9772;DHT22;4925;52.588;13.370;2022-12-05T08:35:02;5.00;99.90
9772;DHT22;4925;52.588;13.370;2022-12-05T08:37:27;5.10;99.90
9772;DHT22;4925;52.588;13.370;2022-12-05T08:39:53;5.00;99.90
9772;DHT22;4925;52.588;13.370;2022-12-05T08:42:19;5.00;99.90
9772;DHT22;4925;52.588;13.370;2022-12-05T08:44:45;5.10;99.90
9772;DHT22;4925;52.588;13.370;2022-12-05T08:47:11;5.20;99.90
9772;DHT22;4925;52.588;13.370;2022-12-05T08:49:37;5.20;99.90
9772;DHT22;4925;52.588;13.370;2022-12-05T08:52:02;5.20;99.90
9772;DHT22;4925;52.588;13.370;2022-12-05T08:54:28;5.20;99.90
9772;DHT22;4925;52.588;13.370;2022-12-05T08:56:54;5.20;99.90
9772;DHT22;4925;52.588;13.370;2022-12-05T08:59:19;5.20;99.90
9772;DHT22;4925;52.588;13.370;2022-12-05T09:01:48;5.20;99.90
9772;DHT22;4925;52.588;13.370;2022-12-05T09:04:13;5.30;99.90
9772;DHT22;4925;52.588;13.370;2022-12-05T09:06:39;5.30;99.90
9772;DHT22;4925;52.588;13.370;2022-12-05T09:09:07;5.30;99.90
9772;DHT22;4925;52.588;13.370;2022-12-05T09:11:37;5.30;99.90
9772;DHT22;4925;52.588;13.370;2022-12-05T09:14:05;5.40;99.90
9772;DHT22;4925;52.588;13.370;2022-12-05T09:16:36;5.40;99.90
9772;DHT22;4925;52.588;13.370;2022-12-05T09:19:03;5.50;99.90
9772;DHT22;4925;52.588;13.370;2022-12-05T09:21:30;5.40;99.90
9772;DHT22;4925;52.588;13.370;2022-12-05T09:23:59;5.30;99.90
9772;DHT22;4925;52.588;13.370;2022-12-05T09:26:27;5.40;99.90
9772;DHT22;4925;52.588;13.370;2022-12-05T09:28:53;5.30;99.90
9772;DHT22;4925;52.588;13.370;2022-12-05T09:31:21;5.40;99.90
9772;DHT22;4925;52.588;13.370;2022-12-05T09:33:48;5.40;99.90
9772;DHT22;4925;52.588;13.370;2022-12-05T09:36:20;5.50;99.90
9772;DHT22;4925;52.588;13.370;2022-12-05T09:38:46;5.40;99.90
9772;DHT22;4925;52.588;13.370;2022-12-05T09:47:03;5.50;99.90
9772;DHT22;4925;52.588;13.370;2022-12-05T09:49:34;5.40;99.90
9772;DHT22;4925;52.588;13.370;2022-12-05T09:52:03;5.30;99.90
9772;DHT22;4925;52.588;13.370;2022-12-05T09:54:29;5.30;99.90
9772;DHT22;4925;52.588;13.370;2022-12-05T09:56:56;5.30;99.90
9772;DHT22;4925;52.588;13.370;2022-12-05T09:59:22;5.30;99.90
9772;DHT22;4925;52.588;13.370;2022-12-05T10:02:09;5.30;99.90
9772;DHT22;4925;52.588;13.370;2022-12-05T10:04:56;5.50;99.90
9772;DHT22;4925;52.588;13.370;2022-12-05T10:15:53;5.60;99.90
9772;DHT22;4925;52.588;13.370;2022-12-05T10:23:52;5.50;99.90
9772;DHT22;4925;52.588;13.370;2022-12-05T10:26:20;5.60;99.90
9772;DHT22;4925;52.588;13.370;2022-12-05T10:31:37;5.60;99.90
9772;DHT22;4925;52.588;13.370;2022-12-05T10:34:34;5.60;99.90
9772;DHT22;4925;52.588;13.370;2022-12-05T10:37:10;5.60;99.90
9772;DHT22;4925;52.588;13.370;2022-12-05T10:39:38;5.70;99.90
9772;DHT22;4925;52.588;13.370;2022-12-05T10:42:06;5.80;99.90
9772;DHT22;4925;52.588;13.370;2022-12-05T10:44:33;5.70;99.90
9772;DHT22;4925;52.588;13.370;2022-12-05T10:47:00;5.80;99.90
9772;DHT22;4925;52.588;13.370;2022-12-05T10:49:26;5.70;99.90
9772;DHT22;4925;52.588;13.370;2022-12-05T10:51:52;5.70;99.90
9772;DHT22;4925;52.588;13.370;2022-12-05T10:54:22;5.80;99.90
9772;DHT22;4925;52.588;13.370;2022-12-05T10:56:51;5.90;99.90
9772;DHT22;4925;52.588;13.370;2022-12-05T10:59:20;6.00;99.90
9772;DHT22;4925;52.588;13.370;2022-12-05T11:04:28;6.10;99.90
9772;DHT22;4925;52.588;13.370;2022-12-05T11:07:02;6.10;99.90
9772;DHT22;4925;52.588;13.370;2022-12-05T11:09:32;6.20;99.90
9772;DHT22;4925;52.588;13.370;2022-12-05T11:12:21;6.20;99.90
9772;DHT22;4925;52.588;13.370;2022-12-05T11:14:56;6.20;99.90
9772;DHT22;4925;52.588;13.370;2022-12-05T11:17:31;6.10;99.90
9772;DHT22;4925;52.588;13.370;2022-12-05T11:19:57;6.20;99.90
9772;DHT22;4925;52.588;13.370;2022-12-05T11:22:33;6.30;99.90
9772;DHT22;4925;52.588;13.370;2022-12-05T11:25:00;6.30;99.90
9772;DHT22;4925;52.588;13.370;2022-12-05T11:27:30;6.30;99.90
9772;DHT22;4925;52.588;13.370;2022-12-05T11:30:03;6.30;99.90
9772;DHT22;4925;52.588;13.370;2022-12-05T11:32:39;6.40;99.90
9772;DHT22;4925;52.588;13.370;2022-12-05T11:35:11;6.40;99.90
9772;DHT22;4925;52.588;13.370;2022-12-05T11:37:57;6.30;99.90
9772;DHT22;4925;52.588;13.370;2022-12-05T11:43:27;6.30;99.90
9772;DHT22;4925;52.588;13.370;2022-12-05T11:48:37;6.20;99.90
9772;DHT22;4925;52.588;13.370;2022-12-05T11:57:05;6.40;99.90
9772;DHT22;4925;52.588;13.370;2022-12-05T11:59:49;6.30;99.90
9772;DHT22;4925;52.588;13.370;2022-12-05T12:02:23;6.40;99.90
9772;DHT22;4925;52.588;13.370;2022-12-05T12:07:32;6.40;99.90
9772;DHT22;4925;52.588;13.370;2022-12-05T12:10:20;6.40;99.90
9772;DHT22;4925;52.588;13.370;2022-12-05T12:21:26;6.70;99.90
9772;DHT22;4925;52.588;13.370;2022-12-05T12:35:01;6.30;99.90
9772;DHT22;4925;52.588;13.370;2022-12-05T12:40:13;6.30;99.90
9772;DHT22;4925;52.588;13.370;2022-12-05T12:42:47;6.30;99.90
9772;DHT22;4925;52.588;13.370;2022-12-05T12:51:00;6.10;99.90
9772;DHT22;4925;52.588;13.370;2022-12-05T12:54:19;6.10;99.90
9772;DHT22;4925;52.588;13.370;2022-12-05T13:02:28;6.30;99.90
9772;DHT22;4925;52.588;13.370;2022-12-05T13:05:03;6.20;99.90
9772;DHT22;4925;52.588;13.370;2022-12-05T13:07:45;6.10;99.90
9772;DHT22;4925;52.588;13.370;2022-12-05T13:12:59;6.10;99.90
9772;DHT22;4925;52.588;13.370;2022-12-05T13:15:55;6.20;99.90
9772;DHT22;4925;52.588;13.370;2022-12-05T13:18:24;6.30;99.90
9772;DHT22;4925;52.588;13.370;2022-12-05T13:20:58;6.40;99.90
9772;DHT22;4925;52.588;13.370;2022-12-05T13:23:27;6.20;99.90
9772;DHT22;4925;52.588;13.370;2022-12-05T13:25:56;6.20;99.90
9772;DHT22;4925;52.588;13.370;2022-12-05T13:30:49;6.20;99.90
9772;DHT22;4925;52.588;13.370;2022-12-05T13:33:34;6.30;99.90
9772;DHT22;4925;52.588;13.370;2022-12-05T13:36:08;6.30;99.90
9772;DHT22;4925;52.588;13.370;2022-12-05T13:38:59;6.40;99.90
9772;DHT22;4925;52.588;13.370;2022-12-05T13:41:47;6.40;99.90
9772;DHT22;4925;52.588;13.370;2022-12-05T13:44:41;6.50;99.90
9772;DHT22;4925;52.588;13.370;2022-12-05T13:49:55;6.50;99.90
9772;DHT22;4925;52.588;13.370;2022-12-05T13:52:29;6.60;99.90
9772;DHT22;4925;52.588;13.370;2022-12-05T13:57:49;6.60;99.90
9772;DHT22;4925;52.588;13.370;2022-12-05T14:07:46;6.60;99.90
9772;DHT22;4925;52.588;13.370;2022-12-05T14:11:05;6.70;99.90
9772;DHT22;4925;52.588;13.370;2022-12-05T14:15:42;6.70;99.90
9772;DHT22;4925;52.588;13.370;2022-12-05T14:18:17;6.70;99.90
9772;DHT22;4925;52.588;13.370;2022-12-05T14:20:55;6.60;99.90
9772;DHT22;4925;52.588;13.370;2022-12-05T14:34:20;6.80;99.90
9772;DHT22;4925;52.588;13.370;2022-12-05T14:37:07;6.80;99.90
9772;DHT22;4925;52.588;13.370;2022-12-05T14:39:50;6.80;99.90
9772;DHT22;4925;52.588;13.370;2022-12-05T14:42:52;6.80;99.90
9772;DHT22;4925;52.588;13.370;2022-12-05T14:48:05;6.80;99.90
9772;DHT22;4925;52.588;13.370;2022-12-05T14:50:49;6.80;99.90
9772;DHT22;4925;52.588;13.370;2022-12-05T14:58:55;6.70;99.90
9772;DHT22;4925;52.588;13.370;2022-12-05T15:01:28;6.70;99.90
9772;DHT22;4925;52.588;13.370;2022-12-05T15:04:18;6.80;99.90
9772;DHT22;4925;52.588;13.370;2022-12-05T15:06:53;6.70;99.90
9772;DHT22;4925;52.588;13.370;2022-12-05T15:11:55;6.60;99.90
9772;DHT22;4925;52.588;13.370;2022-12-05T15:14:24;6.70;99.90
9772;DHT22;4925;52.588;13.370;2022-12-05T15:16:53;6.70;99.90
9772;DHT22;4925;52.588;13.370;2022-12-05T15:19:24;6.70;99.90
9772;DHT22;4925;52.588;13.370;2022-12-05T15:21:56;6.70;99.90
9772;DHT22;4925;52.588;13.370;2022-12-05T15:24:24;6.80;99.90
9772;DHT22;4925;52.588;13.370;2022-12-05T15:26:54;6.90;99.90
9772;DHT22;4925;52.588;13.370;2022-12-05T15:31:53;6.80;99.90
9772;DHT22;4925;52.588;13.370;2022-12-05T15:37:02;6.60;99.90
9772;DHT22;4925;52.588;13.370;2022-12-05T15:39:29;6.80;99.90
9772;DHT22;4925;52.588;13.370;2022-12-05T15:42:14;6.90;99.90
9772;DHT22;4925;52.588;13.370;2022-12-05T15:44:40;6.80;99.90
9772;DHT22;4925;52.588;13.370;2022-12-05T15:47:19;6.80;99.90
9772;DHT22;4925;52.588;13.370;2022-12-05T15:49:45;6.80;99.90
9772;DHT22;4925;52.588;13.370;2022-12-05T15:52:28;6.80;99.90
9772;DHT22;4925;52.588;13.370;2022-12-05T15:54:59;6.70;99.90
9772;DHT22;4925;52.588;13.370;2022-12-05T15:57:35;6.80;99.90
9772;DHT22;4925;52.588;13.370;2022-12-05T16:00:05;6.80;99.90
9772;DHT22;4925;52.588;13.370;2022-12-05T16:07:44;6.60;99.90
9772;DHT22;4925;52.588;13.370;2022-12-05T16:10:11;6.40;99.90
9772;DHT22;4925;52.588;13.370;2022-12-05T16:12:41;6.40;99.90
9772;DHT22;4925;52.588;13.370;2022-12-05T16:15:14;6.30;99.90
9772;DHT22;4925;52.588;13.370;2022-12-05T16:17:45;6.20;99.90
9772;DHT22;4925;52.588;13.370;2022-12-05T16:20:26;6.30;99.90
9772;DHT22;4925;52.588;13.370;2022-12-05T16:22:56;6.20;99.90
9772;DHT22;4925;52.588;13.370;2022-12-05T16:25:28;6.10;99.90
9772;DHT22;4925;52.588;13.370;2022-12-05T16:28:00;6.20;99.90
9772;DHT22;4925;52.588;13.370;2022-12-05T16:30:26;6.00;99.90
9772;DHT22;4925;52.588;13.370;2022-12-05T16:33:19;6.10;99.90
9772;DHT22;4925;52.588;13.370;2022-12-05T16:35:45;6.20;99.90
9772;DHT22;4925;52.588;13.370;2022-12-05T16:45:56;6.30;99.90
9772;DHT22;4925;52.588;13.370;2022-12-05T16:48:28;6.30;99.90
9772;DHT22;4925;52.588;13.370;2022-12-05T16:53:53;6.40;99.90
9772;DHT22;4925;52.588;13.370;2022-12-05T16:56:23;6.50;99.90
9772;DHT22;4925;52.588;13.370;2022-12-05T16:58:49;6.60;99.90
9772;DHT22;4925;52.588;13.370;2022-12-05T17:01:21;6.60;99.90
9772;DHT22;4925;52.588;13.370;2022-12-05T17:03:47;6.50;99.90
9772;DHT22;4925;52.588;13.370;2022-12-05T17:06:13;6.60;99.90
9772;DHT22;4925;52.588;13.370;2022-12-05T17:08:40;6.60;99.90
9772;DHT22;4925;52.588;13.370;2022-12-05T17:11:27;6.50;99.90
9772;DHT22;4925;52.588;13.370;2022-12-05T17:13:55;6.60;99.90
9772;DHT22;4925;52.588;13.370;2022-12-05T17:16:21;6.60;99.90
9772;DHT22;4925;52.588;13.370;2022-12-05T17:18:47;6.70;99.90
9772;DHT22;4925;52.588;13.370;2022-12-05T17:21:16;6.70;99.90
9772;DHT22;4925;52.588;13.370;2022-12-05T17:23:42;6.70;99.90
9772;DHT22;4925;52.588;13.370;2022-12-05T17:26:12;6.70;99.90
9772;DHT22;4925;52.588;13.370;2022-12-05T17:28:38;6.90;99.90
9772;DHT22;4925;52.588;13.370;2022-12-05T17:31:04;7.00;99.90
9772;DHT22;4925;52.588;13.370;2022-12-05T17:33:30;7.00;99.90
9772;DHT22;4925;52.588;13.370;2022-12-05T17:35:55;7.10;99.90
9772;DHT22;4925;52.588;13.370;2022-12-05T17:38:21;7.10;99.90
9772;DHT22;4925;52.588;13.370;2022-12-05T17:40:47;7.20;99.90
9772;DHT22;4925;52.588;13.370;2022-12-05T17:43:13;7.30;99.90
9772;DHT22;4925;52.588;13.370;2022-12-05T17:45:40;7.30;99.90
9772;DHT22;4925;52.588;13.370;2022-12-05T17:48:14;7.30;99.90
9772;DHT22;4925;52.588;13.370;2022-12-05T17:50:41;7.30;99.90
9772;DHT22;4925;52.588;13.370;2022-12-05T17:53:11;7.10;99.90
9772;DHT22;4925;52.588;13.370;2022-12-05T17:55:38;7.10;99.90
9772;DHT22;4925;52.588;13.370;2022-12-05T17:58:03;7.00;99.90
9772;DHT22;4925;52.588;13.370;2022-12-05T18:00:29;6.90;99.90
9772;DHT22;4925;52.588;13.370;2022-12-05T18:02:55;6.80;99.90
9772;DHT22;4925;52.588;13.370;2022-12-05T18:05:21;6.70;99.90
9772;DHT22;4925;52.588;13.370;2022-12-05T18:07:47;6.60;99.90
9772;DHT22;4925;52.588;13.370;2022-12-05T18:10:20;6.80;99.90
9772;DHT22;4925;52.588;13.370;2022-12-05T18:12:48;6.80;99.90
9772;DHT22;4925;52.588;13.370;2022-12-05T18:15:15;6.90;99.90
9772;DHT22;4925;52.588;13.370;2022-12-05T18:17:41;6.90;99.90
9772;DHT22;4925;52.588;13.370;2022-12-05T18:20:10;6.90;99.90
9772;DHT22;4925;52.588;13.370;2022-12-05T18:22:36;7.00;99.90
9772;DHT22;4925;52.588;13.370;2022-12-05T18:25:02;6.70;99.90
9772;DHT22;4925;52.588;13.370;2022-12-05T18:27:28;6.50;99.90
9772;DHT22;4925;52.588;13.370;2022-12-05T18:29:54;6.60;99.90
9772;DHT22;4925;52.588;13.370;2022-12-05T18:32:20;6.80;99.90
9772;DHT22;4925;52.588;13.370;2022-12-05T18:34:45;6.80;99.90
9772;DHT22;4925;52.588;13.370;2022-12-05T18:37:11;6.60;99.90
9772;DHT22;4925;52.588;13.370;2022-12-05T18:39:37;6.40;99.90
9772;DHT22;4925;52.588;13.370;2022-12-05T18:42:03;6.40;99.90
9772;DHT22;4925;52.588;13.370;2022-12-05T18:44:30;6.40;99.90
9772;DHT22;4925;52.588;13.370;2022-12-05T18:46:56;6.30;99.90
9772;DHT22;4925;52.588;13.370;2022-12-05T18:49:21;6.20;99.90
9772;DHT22;4925;52.588;13.370;2022-12-05T18:51:47;6.00;99.90
9772;DHT22;4925;52.588;13.370;2022-12-05T18:54:13;6.00;99.90
9772;DHT22;4925;52.588;13.370;2022-12-05T18:56:39;5.80;99.90
9772;DHT22;4925;52.588;13.370;2022-12-05T18:59:12;5.90;99.90
9772;DHT22;4925;52.588;13.370;2022-12-05T19:01:38;5.90;99.90
9772;DHT22;4925;52.588;13.370;2022-12-05T19:04:07;5.80;99.90
9772;DHT22;4925;52.588;13.370;2022-12-05T19:06:34;5.80;99.90
9772;DHT22;4925;52.588;13.370;2022-12-05T19:09:07;5.80;99.90
9772;DHT22;4925;52.588;13.370;2022-12-05T19:11:33;5.70;99.90
9772;DHT22;4925;52.588;13.370;2022-12-05T19:14:01;5.70;99.90
9772;DHT22;4925;52.588;13.370;2022-12-05T19:16:29;5.60;99.90
9772;DHT22;4925;52.588;13.370;2022-12-05T19:18:58;5.80;99.90
9772;DHT22;4925;52.588;13.370;2022-12-05T19:21:25;5.70;99.90
9772;DHT22;4925;52.588;13.370;2022-12-05T19:23:51;5.70;99.90
9772;DHT22;4925;52.588;13.370;2022-12-05T19:26:18;5.70;99.90
9772;DHT22;4925;52.588;13.370;2022-12-05T19:28:44;5.80;99.90
9772;DHT22;4925;52.588;13.370;2022-12-05T19:31:20;5.60;99.90
9772;DHT22;4925;52.588;13.370;2022-12-05T19:33:48;5.60;99.90
9772;DHT22;4925;52.588;13.370;2022-12-05T19:36:19;5.70;99.90
9772;DHT22;4925;52.588;13.370;2022-12-05T19:38:47;5.60;99.90
9772;DHT22;4925;52.588;13.370;2022-12-05T19:41:15;5.60;99.90